TAF KBNA
KBNA 270520Z 2706/2806 18003KT P6SM SKC FM271400 19010KT P6SM SCT100=
METAR KBNA
WC KBNA
WS KBNA
WV KBNA